Aeroporto :







RITROVATECI SU...

 
LOGIN :

Iscrizione | Disclaimer

   EN    FR    IT 

 









Sommario :    VFR   VFR Marginale   IFR   IFR Intensivo   IFR Molto Intensivo
Visibilità : 
Base nubi : 
>= 8 km
>= 3000ft
5 / 8 km
1000 / 3000 ft
1500m / 5 km
500 / 1000 ft
800 / 1500m
200 / 500 ft
< 800m
< 200 ft
Simboli :   Temporali  Nebbia  Neve Forte  Precipitazioni Forti  Vento > 20 kt






- Altitudine del aeroporto : 38 ft
- Codice IATA : TAB


TTCP - Crown Point Int.

ULTIMO METAR :
  • 252100Z 13014KT 9999 FEW025 30/23 Q1012 NOSIG

METARs OBSOLETI :
  • 252000Z 13013KT 9999 FEW022 31/23 Q1012 NOSIG
  • 251900Z 14013KT 9999 FEW025 31/24 Q1012 NOSIG

TAF TAF TTCP
Valido dal 25 a 18 ore il 26 a 18 ore UTC


251600Z 2518/2618 13015KT 9999 FEW025
BECMG 2523/2601 09008KT
TEMPO 2610/2618 13015G30KT 5000 SHRA FEW012CB BKN016
BECMG 2612/2614 13015KT
FIR TTZP / America del Nord



MetMap, La meteo Aeronautica in un colpo d'occhio ! - Copyright ORBIFLY Dicembre 2007 - Disclaimer

ORBIFLY MET'MAP TEAM :

Programmazione e sviluppo : Alexandra Zaïnal
Concezione : Baudouin d'Aumeries
Aiuto per la programmazione : Marc-Olivier Méhu
Supporto tecnico e logistico : Manuel Goepfert
Aiuto per la traduzione : Arnaldo La Scala

Contatto : metmap@orbifly.com




FONTI E CREDITI :

   NOAA